• Join FlightAware (Why Join?)
  • Login
  • US Flag 
09:44PM EDT


 

Airport Tracker/Info


-or-


 

Live Flight TrackerFlight Track Log ✈ EGF3676 ✈ 03-May-2013 ✈ KDEN - KLAX

Flight Track Log - Related Links

Times and Time Zones

All times are in EDT time to prevent confusion due to time zone crossing. See the EGF3676 flight status page for this flight to view local times or setup timezone preferences in your user account.

Time Position Orientation Groundspeed Altitude Reporting Facility
EDT Latitude Longitude Course Direction KTS MPH feet Rate Location/Type
06:01PM 39.9500 -104.7167 255° West 216 249 8,000  Level Denver TRACON
06:02PM 39.7280 -105.0495 247° West  Level FlightAware Approximate
06:02PM 40.0092 -104.7364 346° North 250 288 9,800  Level Denver Center
06:03PM 39.6857 -105.1763 247° West  Level FlightAware Approximate
06:03PM 40.0372 -104.8253 292° West 292 336 11,700  Level Denver Center
06:04PM 39.6483 -105.3054 248° West  Level FlightAware Approximate
06:04PM 40.0008 -104.9403 248° West 337 388 13,700  Level Denver Center
06:05PM 39.6089 -105.4336 248° West  Level FlightAware Approximate
06:05PM 39.9361 -105.0383 229° Southwest 357 411 15,200  Level Denver Center
06:06PM 39.5626 -105.5539 255° West  Level FlightAware Approximate
06:06PM 39.8503 -105.1706 230° Southwest 389 448 17,300  Level Denver Center
06:07PM 39.7722 -105.2881 229° Southwest 401 461 19,000 1,560 Climbing Denver Center
06:08PM 39.6808 -105.4272 230° Southwest 412 474 21,200 1,920 Climbing Denver Center
06:10PM 39.5881 -105.5636 229° Southwest 414 476 23,500 1,980 Climbing Denver Center
06:11PM 39.5303 -105.6933 240° Southwest 395 455 25,300 1,500 Climbing Denver Center
06:12PM 39.4978 -105.8067 250° West 401 461 26,600 1,200 Climbing Denver Center
06:13PM 39.4639 -105.9403 252° West 388 447 27,900 1,320 Climbing Denver Center
06:14PM 39.4186 -106.1008 250° West 401 461 29,400 1,320 Climbing Denver Center
06:15PM 39.3753 -106.2544 250° West 407 468 30,700 960 Climbing Denver Center
06:16PM 39.3378 -106.3864 250° West 409 471 31,600 960 Climbing Denver Center
06:17PM 39.2939 -106.5406 250° West 410 472 33,000 1,200 Climbing Denver Center
06:18PM 39.2564 -106.6703 250° West 404 465 34,200 1,200 Climbing Denver Center
06:19PM 39.1900 -106.8047 238° Southwest 401 461 35,500 1,200 Climbing Denver Center
06:20PM 39.1103 -106.9286 230° Southwest 401 461 36,700 1,080 Climbing Denver Center
06:21PM 39.0353 -107.0481 231° Southwest 387 445 37,800 600 Climbing Denver Center
06:22PM 38.9722 -107.1492 231° Southwest 379 436 38,000 60 Climbing Denver Center
06:23PM 38.8939 -107.2717 231° Southwest 395 455 38,000  Level Denver Center
06:24PM 38.8253 -107.3783 230° Southwest 402 463 38,000  Level Denver Center
06:25PM 38.7428 -107.5061 230° Southwest 411 473 38,000  Level Denver Center
06:26PM 38.6703 -107.6208 231° Southwest 424 488 38,000  Level Denver Center
06:27PM 38.6092 -107.7136 230° Southwest 426 490 38,000  Level Denver Center
06:28PM 38.5131 -107.8636 231° Southwest 426 490 38,000  Level Denver Center
06:29PM 38.4400 -107.9758 230° Southwest 428 493 38,000  Level Denver Center
06:30PM 38.3544 -108.1078 230° Southwest 430 495 38,000  Level Denver Center
06:31PM 38.2808 -108.2192 230° Southwest 428 493 38,000  Level Denver Center
06:32PM 38.1944 -108.3531 231° Southwest 432 497 38,000  Level Denver Center
06:34PM 38.1192 -108.4650 229° Southwest 435 501 38,000  Level Denver Center
06:35PM 38.0353 -108.5906 230° Southwest 429 494 38,000  Level Denver Center
06:36PM 37.9622 -108.6986 229° Southwest 423 487 38,000  Level Denver Center
06:37PM 37.8769 -108.8286 230° Southwest 427 491 38,000  Level Denver Center
06:38PM 37.8058 -108.9394 231° Southwest 426 490 38,000  Level Denver Center
06:39PM 37.7419 -109.0808 240° Southwest 418 481 38,000  Level Denver Center
06:40PM 37.6889 -109.2019 241° Southwest 413 475 38,000  Level Denver Center
06:41PM 37.6164 -109.3631 240° Southwest 413 475 38,000  Level Denver Center
06:42PM 37.5628 -109.4844 241° Southwest 414 476 38,000  Level Denver Center
06:43PM 37.4992 -109.6253 240° Southwest 415 478 38,000  Level Denver Center
06:44PM 37.4444 -109.7453 240° Southwest 413 475 38,000  Level Denver Center
06:45PM 37.3817 -109.8858 241° Southwest 413 475 38,000  Level Denver Center
06:46PM 37.3361 -109.9844 240° Southwest 411 473 38,000  Level Denver Center
06:47PM 37.2631 -110.1444 240° Southwest 413 475 38,000  Level Denver Center
06:49PM 37.1664 -110.3481 239° Southwest 419 482 38,000  Level Los Angeles Center
06:49PM 37.1467 -110.3981 244° Southwest 415 478 38,000  Level Denver Center
06:50PM 37.0892 -110.5219 240° Southwest 412 474 38,000  Level Denver Center
06:51PM 37.0311 -110.6478 240° Southwest 415 478 38,000  Level Denver Center
06:52PM 36.9733 -110.7717 240° Southwest 415 478 38,000  Level Denver Center
06:53PM 36.9036 -110.9211 240° Southwest 413 475 38,000  Level Denver Center
06:54PM 36.8447 -111.0453 239° Southwest 413 475 38,000  Level Denver Center
06:55PM 36.7889 -111.1681 240° Southwest 410 472 38,000  Level Denver Center
06:56PM 36.7300 -111.2922 239° Southwest 412 474 38,000  Level Denver Center
06:58PM 36.6708 -111.4158 239° Southwest 414 476 38,000  Level Denver Center
06:59PM 36.5989 -111.5636 239° Southwest 415 478 38,000  Level Denver Center
07:00PM 36.5400 -111.6872 239° Southwest 415 478 38,000  Level Denver Center
07:01PM 36.4572 -111.8600 239° Southwest 414 476 38,000  Level Denver Center
07:01PM 36.4433 -111.8853 236° Southwest 416 479 38,000  Level Los Angeles Center
07:02PM 36.3842 -112.0078 239° Southwest 414 476 38,000  Level Los Angeles Center
07:03PM 36.3244 -112.1306 239° Southwest 415 478 38,000  Level Los Angeles Center
07:04PM 36.2647 -112.2533 239° Southwest 415 478 38,000  Level Los Angeles Center
07:05PM 36.1928 -112.4011 239° Southwest 417 480 38,000  Level Los Angeles Center
07:06PM 36.1331 -112.5219 239° Southwest 412 474 38,000  Level Los Angeles Center
07:07PM 36.0733 -112.6456 239° Southwest 416 479 38,000  Level Los Angeles Center
07:08PM 36.0128 -112.7672 238° Southwest 416 479 38,000  Level Los Angeles Center
07:09PM 35.9544 -112.8853 239° Southwest 415 478 38,000  Level Los Angeles Center
07:11PM 35.8939 -113.0075 239° Southwest 419 482 38,000  Level Los Angeles Center
07:12PM 35.8103 -113.1742 238° Southwest 414 476 38,000  Level Los Angeles Center
07:13PM 35.7508 -113.2953 239° Southwest 417 480 38,000  Level Los Angeles Center
07:14PM 35.6903 -113.4133 238° Southwest 416 479 38,000  Level Los Angeles Center
07:15PM 35.6306 -113.5328 238° Southwest 415 478 38,000  Level Los Angeles Center
07:16PM 35.5694 -113.6819 243° Southwest 412 474 38,000  Level Los Angeles Center
07:17PM 35.5186 -113.8061 243° Southwest 411 473 38,000  Level Los Angeles Center
07:18PM 35.4672 -113.9314 243° Southwest 413 475 38,000  Level Los Angeles Center
07:19PM 35.4125 -114.0633 243° Southwest 411 473 38,000  Level Los Angeles Center
07:20PM 35.3617 -114.1889 244° Southwest 412 474 38,000  Level Los Angeles Center
07:21PM 35.3114 -114.3119 243° Southwest 405 466 38,000  Level Los Angeles Center
07:22PM 35.2592 -114.4367 243° Southwest 407 468 38,000  Level Los Angeles Center
07:23PM 35.2181 -114.5358 243° Southwest 409 471 38,000  Level Los Angeles Center
07:24PM 35.1444 -114.7117 243° Southwest 413 475 38,000  Level Los Angeles Center
07:25PM 35.0928 -114.8358 243° Southwest 410 472 38,000  Level Los Angeles Center
07:26PM 35.0403 -114.9600 243° Southwest 411 473 38,000  Level Los Angeles Center
07:27PM 34.9878 -115.0844 243° Southwest 411 473 38,000  Level Los Angeles Center
07:29PM 34.9356 -115.2097 243° Southwest 412 474 38,000  Level Los Angeles Center
07:30PM 34.8728 -115.3594 243° Southwest 414 476 38,000  Level Los Angeles Center
07:31PM 34.8086 -115.5092 242° Southwest 416 479 38,000  Level Los Angeles Center
07:32PM 34.7592 -115.6253 243° Southwest 414 476 38,000  Level Los Angeles Center
07:33PM 34.7053 -115.7497 242° Southwest 415 478 38,000 -120 Level Los Angeles Center
07:34PM 34.6517 -115.8731 242° Southwest 414 476 37,800 -1,080 Descending Los Angeles Center
07:35PM 34.5989 -115.9967 243° Southwest 413 475 35,800 -2,160 Descending Los Angeles Center
07:36PM 34.5325 -116.1503 242° Southwest 428 493 33,400 -2,220 Descending Los Angeles Center
07:37PM 34.4728 -116.2850 242° Southwest 449 517 31,300 -1,860 Descending Los Angeles Center
07:38PM 34.4147 -116.4175 242° Southwest 446 513 29,600 -1,860 Descending Los Angeles Center
07:39PM 34.3558 -116.5481 241° Southwest 445 512 27,500 -2,280 Descending Los Angeles Center
07:40PM 34.3011 -116.6753 243° Southwest 432 497 25,000 -2,400 Descending Los Angeles Center
07:41PM 34.2419 -116.8061 241° Southwest 441 507 22,600 -2,580 Descending Los Angeles Center
07:42PM 34.1744 -116.9578 242° Southwest 429 494 19,700 -1,800 Descending Los Angeles Center
07:43PM 34.1197 -117.0797 242° Southwest 395 455 19,000 -540 Descending Los Angeles Center
07:43PM 34.1000 -117.1167 237° Southwest 362 417 19,000 -1,500 Level Southern California TRACON
07:44PM 34.0667 -117.2167 248° West 355 409 17,100 -1,980 Descending Southern California TRACON
07:45PM 34.0333 -117.3333 251° West 339 390 15,100 -1,920 Descending Southern California TRACON
07:46PM 34.0333 -117.4333 270° West 326 375 13,300 -1,620 Descending Southern California TRACON
07:47PM 34.0167 -117.5500 260° West 332 382 11,900 -1,320 Descending Southern California TRACON
07:48PM 34.0167 -117.6667 270° West 337 388 10,700 -1,320 Descending Southern California TRACON
07:49PM 34.0000 -117.7500 256° West 279 321 9,300 -1,500 Descending Southern California TRACON
07:50PM 33.9833 -117.8500 259° West 283 326 7,800 -1,320 Descending Southern California TRACON
07:51PM 33.9833 -117.9500 270° West 285 328 6,700 -900 Descending Southern California TRACON
07:52PM 33.9667 -118.0333 256° West 281 323 6,000 -720 Descending Southern California TRACON